Time;durP1;ratioP1;P1;durP2;ratioP2;P2;SDS_P1;SDS_P2;PMS_P1;PMS_P2;Temp;Humidity;BMP_temperature;BMP_pressure;BME280_temperature;BME280_humidity;BME280_pressure;Samples;Min_cycle;Max_cycle;Signal;HPM_P1;HPM_P2
2024/02/16 00:01:42;;;;;;;5.03;2.20;;;;;;;11.04;100.00;101079.91;5033328;28;20439;-72
2024/02/16 00:04:08;;;;;;;3.87;1.50;;;;;;;11.08;100.00;101078.25;5033945;28;20438;-72
2024/02/16 00:06:35;;;;;;;5.07;2.50;;;;;;;11.05;100.00;101079.63;5033871;28;20521;-72
2024/02/16 00:09:02;;;;;;;3.80;1.93;;;;;;;11.03;100.00;101092.66;5033983;28;20443;-72
2024/02/16 00:11:28;;;;;;;3.50;1.87;;;;;;;11.01;100.00;101083.19;5047868;23;20779;-65
2024/02/16 00:13:55;;;;;;;3.00;1.47;;;;;;;11.00;100.00;101079.69;5013687;28;20543;-64
2024/02/16 00:16:23;;;;;;;4.23;1.77;;;;;;;10.97;100.00;101082.16;5014082;28;20576;-64
2024/02/16 00:18:50;;;;;;;3.20;1.17;;;;;;;10.96;100.00;101072.44;5013669;28;20450;-64
2024/02/16 00:21:17;;;;;;;3.80;1.90;;;;;;;10.96;100.00;101073.22;5013832;28;20448;-65
2024/02/16 00:23:44;;;;;;;3.17;1.53;;;;;;;10.98;100.00;101078.34;5013731;28;20840;-65
2024/02/16 00:26:10;;;;;;;3.73;2.00;;;;;;;10.96;100.00;101075.94;5013776;28;20499;-65
2024/02/16 00:28:37;;;;;;;4.43;1.57;;;;;;;11.00;100.00;101078.88;5013981;28;20443;-65
2024/02/16 00:31:05;;;;;;;3.70;1.80;;;;;;;11.00;100.00;101079.69;5013351;28;20937;-65
2024/02/16 00:33:33;;;;;;;2.50;1.20;;;;;;;10.96;100.00;101077.84;5013259;28;20467;-65
2024/02/16 00:36:00;;;;;;;3.20;1.77;;;;;;;10.98;100.00;101083.78;5013921;28;20581;-65
2024/02/16 00:38:26;;;;;;;4.50;2.07;;;;;;;11.02;100.00;101082.09;5013967;28;20446;-62
2024/02/16 00:40:53;;;;;;;6.77;2.17;;;;;;;11.01;100.00;101080.50;5013529;28;20436;-62
2024/02/16 00:43:20;;;;;;;4.27;1.90;;;;;;;11.06;100.00;101077.72;5013319;28;20543;-64
2024/02/16 00:45:48;;;;;;;3.43;1.93;;;;;;;11.08;100.00;101081.75;5013435;28;20439;-64
2024/02/16 00:48:14;;;;;;;3.47;2.10;;;;;;;11.04;100.00;101075.28;5013596;28;20824;-64
2024/02/16 00:50:43;;;;;;;3.00;1.60;;;;;;;10.99;100.00;101077.28;5013474;28;20872;-64
2024/02/16 00:53:09;;;;;;;3.17;1.50;;;;;;;10.91;100.00;101073.31;5013835;28;20877;-64
2024/02/16 00:55:37;;;;;;;5.23;2.47;;;;;;;10.82;100.00;101075.84;5013997;28;20471;-64
2024/02/16 00:58:03;;;;;;;4.03;1.90;;;;;;;10.80;100.00;101069.94;5013789;28;20440;-64
2024/02/16 01:00:31;;;;;;;4.33;1.60;;;;;;;10.77;100.00;101062.38;5013102;28;20448;-64
2024/02/16 01:02:57;;;;;;;3.60;1.93;;;;;;;10.74;100.00;101065.66;5013318;28;20615;-65
2024/02/16 01:05:24;;;;;;;3.13;1.57;;;;;;;10.72;100.00;101054.31;5013418;28;20471;-65
2024/02/16 01:07:52;;;;;;;4.73;2.13;;;;;;;10.64;100.00;101057.66;5013098;28;20450;-65
2024/02/16 01:10:19;;;;;;;4.33;2.07;;;;;;;10.62;100.00;101059.84;5013766;28;20452;-64
2024/02/16 01:12:45;;;;;;;3.30;1.40;;;;;;;10.58;100.00;101059.63;5014204;28;20480;-66
2024/02/16 01:15:12;;;;;;;6.03;2.30;;;;;;;10.57;100.00;101058.00;5013905;28;20536;-65
2024/02/16 01:17:39;;;;;;;5.20;1.80;;;;;;;10.56;100.00;101055.59;5013231;28;20489;-66
2024/02/16 01:20:10;;;;;;;4.47;2.37;;;;;;;10.56;100.00;101055.59;5013593;28;20459;-65
2024/02/16 01:22:37;;;;;;;5.47;2.37;;;;;;;10.51;100.00;101055.66;5013163;28;20466;-65
2024/02/16 01:25:06;;;;;;;5.10;2.17;;;;;;;10.50;100.00;101048.63;5013529;28;20467;-63
2024/02/16 01:27:32;;;;;;;5.70;2.57;;;;;;;10.48;100.00;101045.38;5013463;28;20443;-63
2024/02/16 01:30:00;;;;;;;4.63;2.30;;;;;;;10.46;100.00;101042.19;5013138;28;20449;-63
2024/02/16 01:32:26;;;;;;;6.17;2.90;;;;;;;10.47;100.00;101041.06;5014571;28;20586;-63
2024/02/16 01:34:53;;;;;;;6.17;2.87;;;;;;;10.51;100.00;101037.50;5016299;28;20943;-63
2024/02/16 01:37:20;;;;;;;5.47;2.87;;;;;;;10.56;100.00;101040.13;5016356;28;20486;-63
2024/02/16 01:39:46;;;;;;;4.50;2.30;;;;;;;10.55;100.00;101035.03;5016437;28;20502;-63
2024/02/16 01:42:14;;;;;;;9.40;3.60;;;;;;;10.52;100.00;101027.47;5016379;28;20471;-63
2024/02/16 01:44:41;;;;;;;6.67;3.00;;;;;;;10.50;100.00;101026.97;5016511;28;20443;-63
2024/02/16 01:47:07;;;;;;;4.50;2.67;;;;;;;10.47;100.00;101024.81;5016779;28;20482;-63
2024/02/16 01:49:35;;;;;;;4.30;2.77;;;;;;;10.47;100.00;101017.50;5016598;28;20467;-63
2024/02/16 01:52:02;;;;;;;5.63;2.80;;;;;;;10.43;100.00;101021.06;5016139;28;20979;-63
2024/02/16 01:54:29;;;;;;;5.50;3.10;;;;;;;10.36;100.00;101013.31;5015866;28;20898;-63
2024/02/16 01:56:56;;;;;;;8.80;3.70;;;;;;;10.32;100.00;101017.69;5016145;28;20490;-63
2024/02/16 01:59:24;;;;;;;5.70;2.90;;;;;;;10.33;100.00;101006.56;5015814;28;20799;-63
2024/02/16 02:01:51;;;;;;;3.80;2.17;;;;;;;10.35;100.00;101007.06;5015689;28;20976;-63
2024/02/16 02:04:19;;;;;;;5.20;3.00;;;;;;;10.38;100.00;100994.88;5016305;28;20530;-63
2024/02/16 02:06:46;;;;;;;8.30;3.77;;;;;;;10.39;100.00;100991.06;5016302;28;20458;-63
2024/02/16 02:09:13;;;;;;;5.80;2.80;;;;;;;10.42;100.00;100978.84;5015937;28;20467;-63
2024/02/16 02:11:39;;;;;;;6.80;3.40;;;;;;;10.44;100.00;100982.06;5015680;28;20947;-63
2024/02/16 02:14:06;;;;;;;9.67;3.90;;;;;;;10.45;100.00;100978.28;5015908;28;20863;-65
2024/02/16 02:16:34;;;;;;;6.37;3.40;;;;;;;10.44;100.00;100982.06;5015705;28;20490;-65
2024/02/16 02:19:01;;;;;;;8.13;4.17;;;;;;;10.42;100.00;100971.53;5016098;28;20535;-64
2024/02/16 02:21:27;;;;;;;7.13;3.83;;;;;;;10.39;100.00;100965.88;5015914;28;20900;-64
2024/02/16 02:23:55;;;;;;;6.53;2.53;;;;;;;10.43;100.00;100964.22;5015315;28;20450;-64
2024/02/16 02:26:22;;;;;;;4.50;2.53;;;;;;;10.44;100.00;100963.09;5015294;28;20885;-64
2024/02/16 02:28:48;;;;;;;6.83;3.73;;;;;;;10.47;100.00;100965.25;5015499;28;20523;-64
2024/02/16 02:31:15;;;;;;;8.07;3.10;;;;;;;10.44;100.00;100958.50;5015684;28;20444;-65
2024/02/16 02:33:40;;;;;;;8.00;3.93;;;;;;;10.46;100.00;100956.31;5015350;28;20464;-64
2024/02/16 02:36:07;;;;;;;7.40;3.80;;;;;;;10.48;100.00;100956.81;5015696;28;20982;-64
2024/02/16 02:38:33;;;;;;;7.60;3.40;;;;;;;10.46;100.00;100958.22;5015069;28;20674;-64
2024/02/16 02:41:02;;;;;;;4.60;2.87;;;;;;;10.45;100.00;100962.03;5015390;28;20475;-64
2024/02/16 02:43:28;;;;;;;4.97;3.30;;;;;;;10.41;100.00;100956.38;5014579;28;20229;-64
2024/02/16 02:45:55;;;;;;;6.93;4.23;;;;;;;10.40;100.00;100953.94;5015209;28;20527;-64
2024/02/16 02:48:22;;;;;;;7.07;2.97;;;;;;;10.42;100.00;100949.88;5014898;28;20436;-64
2024/02/16 02:50:49;;;;;;;6.83;3.17;;;;;;;10.40;100.00;100953.94;5015540;28;20524;-64
2024/02/16 02:53:15;;;;;;;8.90;4.23;;;;;;;10.38;100.00;100958.84;5014862;28;20472;-64
2024/02/16 02:55:42;;;;;;;7.27;3.83;;;;;;;10.38;100.00;100950.75;5015091;28;20464;-64
2024/02/16 02:58:10;;;;;;;6.00;3.80;;;;;;;10.30;100.00;100960.31;5014607;28;20915;-64
2024/02/16 03:00:36;;;;;;;7.70;3.70;;;;;;;10.23;100.00;100966.06;5015004;28;20447;-64
2024/02/16 03:03:03;;;;;;;7.00;3.93;;;;;;;10.22;100.00;100960.91;5014709;28;21038;-63
2024/02/16 03:05:30;;;;;;;7.10;3.87;;;;;;;10.23;100.00;100966.06;5014896;28;20514;-63
2024/02/16 03:07:58;;;;;;;9.77;4.67;;;;;;;10.26;100.00;100962.78;5014856;28;20519;-63
2024/02/16 03:10:25;;;;;;;8.57;4.07;;;;;;;10.28;100.00;100968.72;5014478;28;20936;-63
2024/02/16 03:12:52;;;;;;;7.60;4.37;;;;;;;10.26;100.00;100965.47;5014792;28;20490;-63
2024/02/16 03:15:20;;;;;;;6.80;3.73;;;;;;;10.27;100.00;100955.44;5014484;28;21011;-63
2024/02/16 03:17:46;;;;;;;8.10;4.53;;;;;;;10.27;100.00;100948.16;5015082;28;20876;-63
2024/02/16 03:20:13;;;;;;;7.53;4.20;;;;;;;10.27;100.00;100955.44;5014693;28;20440;-63
2024/02/16 03:22:39;;;;;;;17.80;5.40;;;;;;;10.27;100.00;100942.75;5014558;28;21062;-63
2024/02/16 03:25:06;;;;;;;7.80;4.30;;;;;;;10.28;100.00;100941.66;5014560;28;20468;-63
2024/02/16 03:27:33;;;;;;;10.10;4.53;;;;;;;10.29;100.00;100942.44;5014912;28;20440;-63
2024/02/16 03:30:00;;;;;;;5.93;4.10;;;;;;;10.29;100.00;100942.44;5014235;28;20947;-63
2024/02/16 03:32:28;;;;;;;7.60;4.47;;;;;;;10.29;100.00;100942.44;5014573;28;20873;-63
2024/02/16 03:34:57;;;;;;;8.40;4.50;;;;;;;10.25;100.00;100930.59;5014443;28;20475;-63
2024/02/16 03:37:24;;;;;;;9.07;4.43;;;;;;;10.26;100.00;100938.41;5014032;28;20488;-63
2024/02/16 03:39:50;;;;;;;7.40;4.13;;;;;;;10.23;100.00;100941.69;5014347;28;20440;-63
2024/02/16 03:42:19;;;;;;;8.40;4.73;;;;;;;10.19;100.00;100943.34;5014161;28;20886;-63
2024/02/16 03:44:46;;;;;;;8.43;4.97;;;;;;;10.18;100.00;100940.91;5014527;28;20490;-63
2024/02/16 03:47:12;;;;;;;7.60;4.43;;;;;;;10.11;100.00;100930.47;5014673;28;20432;-64
2024/02/16 03:49:41;;;;;;;8.60;4.77;;;;;;;10.09;100.00;100938.03;5014286;28;20817;-64
2024/02/16 03:52:07;;;;;;;9.20;4.63;;;;;;;10.01;100.00;100925.19;5014460;28;20543;-64
2024/02/16 03:54:34;;;;;;;9.87;5.07;;;;;;;9.99;100.00;100930.06;5013247;28;20484;-64
2024/02/16 03:57:00;;;;;;;11.73;5.53;;;;;;;9.95;100.00;100927.13;5014044;28;20480;-64
2024/02/16 03:59:27;;;;;;;10.60;5.13;;;;;;;9.94;100.00;100930.13;5013679;28;20476;-64
2024/02/16 04:01:54;;;;;;;8.10;4.77;;;;;;;9.88;100.00;100929.38;5013860;28;20456;-63
2024/02/16 04:04:20;;;;;;;8.10;4.23;;;;;;;9.83;100.00;100926.72;5014015;28;20542;-63
2024/02/16 04:06:48;;;;;;;8.97;4.13;;;;;;;9.84;100.00;100926.44;5014213;28;20447;-63
2024/02/16 04:09:15;;;;;;;7.07;3.23;;;;;;;9.87;100.00;100922.34;5013963;28;20444;-63
2024/02/16 04:11:42;;;;;;;8.63;4.30;;;;;;;9.84;100.00;100918.31;5013559;28;20464;-63
2024/02/16 04:14:09;;;;;;;7.73;4.53;;;;;;;9.89;100.00;100909.34;5013567;28;20427;-63
2024/02/16 04:16:35;;;;;;;7.83;4.50;;;;;;;9.96;100.00;100912.50;5013982;28;20866;-63
2024/02/16 04:19:02;;;;;;;9.70;4.70;;;;;;;10.03;100.00;100909.44;5013705;28;20527;-63
2024/02/16 04:21:29;;;;;;;12.40;5.63;;;;;;;10.06;100.00;100909.69;5013730;28;20523;-63
2024/02/16 04:23:57;;;;;;;6.93;4.70;;;;;;;10.07;100.00;100908.56;5013437;28;20795;-63
2024/02/16 04:26:23;;;;;;;10.40;4.00;;;;;;;10.11;100.00;100897.97;5013719;28;20526;-63
2024/02/16 04:28:50;;;;;;;11.80;4.70;;;;;;;10.10;100.00;100894.47;5013672;28;20490;-63
2024/02/16 04:31:16;;;;;;;8.67;4.50;;;;;;;10.14;100.00;100894.69;5013838;28;20442;-64
2024/02/16 04:33:43;;;;;;;7.47;4.63;;;;;;;10.11;100.00;100898.78;5013272;28;21003;-64
2024/02/16 04:36:10;;;;;;;9.87;4.70;;;;;;;10.14;100.00;100900.13;5013733;28;20531;-64
2024/02/16 04:38:36;;;;;;;9.53;5.10;;;;;;;10.16;100.00;100888.97;5013698;28;20490;-64
2024/02/16 04:41:05;;;;;;;11.97;4.03;;;;;;;10.17;100.00;100896.81;5013942;28;20440;-64
2024/02/16 04:43:32;;;;;;;10.80;5.47;;;;;;;10.18;100.00;100887.63;5013941;28;20460;-64
2024/02/16 04:45:59;;;;;;;11.57;5.57;;;;;;;10.19;100.00;100886.50;5013593;28;20485;-64
2024/02/16 04:48:26;;;;;;;5.57;4.03;;;;;;;10.24;100.00;100893.75;5013500;28;20440;-64
2024/02/16 04:50:53;;;;;;;7.00;4.00;;;;;;;10.21;100.00;100900.53;5013181;28;20948;-63
2024/02/16 04:53:19;;;;;;;11.60;5.50;;;;;;;10.18;100.00;100892.19;5013614;28;20467;-63
2024/02/16 04:55:46;;;;;;;6.83;4.00;;;;;;;10.11;100.00;100879.84;5013474;28;20480;-63
2024/02/16 04:58:14;;;;;;;8.20;3.70;;;;;;;10.04;100.00;100881.28;5013780;28;21005;-63
2024/02/16 05:00:40;;;;;;;7.80;3.70;;;;;;;9.97;100.00;100875.44;5013649;28;20515;-64
2024/02/16 05:03:07;;;;;;;9.10;3.87;;;;;;;9.92;100.00;100876.31;5013378;28;20818;-64
2024/02/16 05:05:34;;;;;;;6.17;3.73;;;;;;;9.80;100.00;100882.09;5013369;28;20522;-64
2024/02/16 05:08:02;;;;;;;5.23;2.93;;;;;;;9.74;100.00;100882.44;5017509;28;20530;-64
2024/02/16 05:10:28;;;;;;;8.93;4.70;;;;;;;9.76;100.00;100891.09;5017315;28;20440;-64
2024/02/16 05:12:55;;;;;;;8.63;4.37;;;;;;;9.77;100.00;100888.09;5016699;28;20478;-64
2024/02/16 05:15:23;;;;;;;7.73;4.07;;;;;;;9.79;100.00;100885.13;5016971;28;20440;-64
2024/02/16 05:17:50;;;;;;;8.27;3.93;;;;;;;9.79;100.00;100877.78;5016428;28;20490;-64
2024/02/16 05:20:19;;;;;;;6.27;3.80;;;;;;;9.82;100.00;100879.09;5016840;28;20530;-64
2024/02/16 05:22:48;;;;;;;7.20;4.07;;;;;;;9.84;100.00;100869.63;5016727;28;20498;-64
2024/02/16 05:25:15;;;;;;;9.77;4.03;;;;;;;9.80;100.00;100855.06;5016931;28;20444;-64
2024/02/16 05:27:42;;;;;;;6.03;3.33;;;;;;;9.78;100.00;100856.44;5016693;28;20460;-64
2024/02/16 05:30:12;;;;;;;5.53;3.17;;;;;;;9.81;100.00;100845.03;5017029;28;20436;-64
2024/02/16 05:32:40;;;;;;;9.60;3.67;;;;;;;9.84;100.00;100845.28;5016851;28;20471;-65
2024/02/16 05:35:12;;;;;;;5.10;3.30;;;;;;;9.83;100.00;100854.50;5017004;28;20474;-63
2024/02/16 05:37:40;;;;;;;8.30;4.43;;;;;;;9.84;100.00;100860.69;5016623;28;20468;-63
2024/02/16 05:40:18;;;;;;;6.37;3.77;;;;;;;9.91;100.00;100860.34;5016260;28;20476;-63
2024/02/16 05:42:46;;;;;;;7.97;3.90;;;;;;;9.93;100.00;100852.75;5015875;28;20459;-62
2024/02/16 05:45:13;;;;;;;7.73;4.80;;;;;;;9.95;100.00;100859.47;5016225;28;20483;-62
2024/02/16 05:47:42;;;;;;;7.83;4.53;;;;;;;9.96;100.00;100857.56;5016422;28;20786;-63
2024/02/16 05:50:08;;;;;;;8.43;3.67;;;;;;;9.94;100.00;100857.84;5016505;28;20498;-63
2024/02/16 05:52:35;;;;;;;6.60;3.73;;;;;;;9.96;100.00;100849.44;5015705;28;21066;-63
2024/02/16 05:55:02;;;;;;;9.40;4.70;;;;;;;9.89;100.00;100835.47;5015616;28;20539;-63
2024/02/16 05:57:30;;;;;;;8.60;5.30;;;;;;;9.84;100.00;100837.16;5015928;28;20484;-63
2024/02/16 05:59:57;;;;;;;9.47;4.87;;;;;;;9.75;100.00;100833.47;5015627;28;20482;-63
2024/02/16 06:02:25;;;;;;;11.60;4.50;;;;;;;9.67;100.00;100836.81;5015811;28;20460;-63
2024/02/16 06:04:53;;;;;;;8.60;4.20;;;;;;;9.65;100.00;100833.63;5015944;28;20455;-63
2024/02/16 06:07:20;;;;;;;6.90;3.77;;;;;;;9.65;100.00;100824.66;5016005;28;20446;-63
2024/02/16 06:09:47;;;;;;;5.47;3.80;;;;;;;9.61;100.00;100824.47;5016754;28;20514;-63
2024/02/16 06:12:15;;;;;;;9.50;4.63;;;;;;;9.63;100.00;100822.25;5044512;22;20585;-72
2024/02/16 06:14:42;;;;;;;6.10;3.53;;;;;;;9.61;100.00;100824.47;5055315;28;20447;-72
2024/02/16 06:17:09;;;;;;;7.23;3.37;;;;;;;9.62;100.00;100836.09;5055619;28;20839;-72
2024/02/16 06:19:35;;;;;;;8.90;3.60;;;;;;;9.66;100.00;100848.75;5054554;28;20528;-73
2024/02/16 06:22:04;;;;;;;5.77;2.93;;;;;;;9.70;100.00;100851.69;5055135;28;20457;-72
2024/02/16 06:24:31;;;;;;;6.67;3.70;;;;;;;9.77;100.00;100858.34;5055380;28;20442;-72
2024/02/16 06:26:57;;;;;;;10.97;3.87;;;;;;;9.85;100.00;100854.19;5055027;28;21037;-73
2024/02/16 06:29:24;;;;;;;7.23;4.07;;;;;;;9.86;100.00;100853.88;5055542;28;20439;-72
2024/02/16 06:31:51;;;;;;;5.60;3.30;;;;;;;9.90;100.00;100848.72;5055561;28;20465;-73
2024/02/16 06:34:19;;;;;;;5.77;3.20;;;;;;;9.84;100.00;100849.88;5055491;28;20447;-73
2024/02/16 06:36:46;;;;;;;5.50;2.93;;;;;;;9.82;100.00;100860.97;5055813;28;20431;-73
2024/02/16 06:39:18;;;;;;;7.00;4.40;;;;;;;9.77;100.00;100861.03;5055094;28;20567;-73
2024/02/16 06:41:46;;;;;;;4.87;2.70;;;;;;;9.79;100.00;100866.97;5055325;28;20879;-73
2024/02/16 06:44:12;;;;;;;9.47;3.57;;;;;;;9.80;100.00;100863.16;5055341;28;20442;-72
2024/02/16 06:46:39;;;;;;;8.60;4.47;;;;;;;9.82;100.00;100857.47;5055016;28;20482;-72
2024/02/16 06:49:06;;;;;;;6.10;2.93;;;;;;;9.88;100.00;100856.31;5055334;28;20434;-70
2024/02/16 06:51:33;;;;;;;9.70;4.37;;;;;;;9.94;100.00;100851.66;5054714;28;20793;-69
2024/02/16 06:54:00;;;;;;;5.50;3.43;;;;;;;10.00;100.00;100853.97;5054914;28;20514;-71
2024/02/16 06:56:28;;;;;;;4.77;2.90;;;;;;;10.06;100.00;100854.75;5054398;28;20453;-72
2024/02/16 06:58:55;;;;;;;6.23;3.20;;;;;;;10.08;100.00;100844.41;5054598;28;20562;-71
2024/02/16 07:01:21;;;;;;;6.63;3.43;;;;;;;10.07;100.00;100848.22;5054634;28;20438;-70
2024/02/16 07:03:48;;;;;;;4.77;2.80;;;;;;;10.04;100.00;100849.59;5054553;28;20494;-69
2024/02/16 07:06:15;;;;;;;8.70;3.47;;;;;;;10.01;100.00;100844.78;5054396;28;20480;-69
2024/02/16 07:08:42;;;;;;;6.10;3.60;;;;;;;10.02;100.00;100849.09;5054306;28;20880;-69
2024/02/16 07:11:11;;;;;;;7.80;3.70;;;;;;;10.09;100.00;100846.03;5054273;28;20988;-70
2024/02/16 07:13:40;;;;;;;11.50;3.40;;;;;;;10.13;100.00;100843.53;5054799;28;20478;-70
2024/02/16 07:16:07;;;;;;;6.33;3.50;;;;;;;10.19;100.00;100848.63;5054968;28;20485;-70
2024/02/16 07:18:34;;;;;;;8.23;3.73;;;;;;;10.14;100.00;100840.56;5054570;28;20565;-70
2024/02/16 07:21:01;;;;;;;6.83;3.30;;;;;;;10.19;100.00;100823.44;5055049;28;20985;-70
2024/02/16 07:23:27;;;;;;;8.93;3.73;;;;;;;10.22;100.00;100830.97;5054337;28;20546;-71
2024/02/16 07:25:56;;;;;;;7.83;4.00;;;;;;;10.23;100.00;100830.69;5054472;28;20427;-71
2024/02/16 07:28:23;;;;;;;10.37;4.67;;;;;;;10.32;100.00;100837.09;5053966;28;20922;-71
2024/02/16 07:30:51;;;;;;;5.43;2.27;;;;;;;10.34;100.00;100824.03;5053390;28;20496;-72
2024/02/16 07:33:18;;;;;;;6.60;3.77;;;;;;;10.37;100.00;100828.09;5054751;28;20497;-70
2024/02/16 07:35:44;;;;;;;7.60;3.63;;;;;;;10.35;100.00;100835.69;5053767;28;20965;-69
2024/02/16 07:38:11;;;;;;;6.60;3.30;;;;;;;10.39;100.00;100833.19;5053621;28;20482;-71
2024/02/16 07:40:38;;;;;;;10.67;3.80;;;;;;;10.47;100.00;100832.53;5054369;28;20549;-73
2024/02/16 07:43:05;;;;;;;7.20;3.60;;;;;;;10.53;100.00;100837.56;5053987;28;20461;-70
2024/02/16 07:45:32;;;;;;;5.70;2.93;;;;;;;10.57;100.00;100845.91;5053967;28;20438;-70
2024/02/16 07:48:04;;;;;;;5.43;2.90;;;;;;;10.61;100.00;100844.22;5053779;28;20430;-70
2024/02/16 07:50:31;;;;;;;7.80;3.33;;;;;;;10.70;100.00;100845.16;5053779;28;20832;-70
2024/02/16 07:52:57;;;;;;;6.97;3.13;;;;;;;10.78;100.00;100843.69;5053851;28;20473;-70
2024/02/16 07:55:25;;;;;;;4.93;2.87;;;;;;;10.84;100.00;100850.63;5054025;28;20434;-70
2024/02/16 07:57:52;;;;;;;7.50;3.07;;;;;;;10.92;100.00;100847.25;5053921;28;20449;-70
2024/02/16 08:00:19;;;;;;;5.13;2.83;;;;;;;10.97;100.00;100851.78;5053818;28;20521;-70
2024/02/16 08:02:45;;;;;;;5.30;3.00;;;;;;;11.04;100.00;100853.00;5053670;28;20537;-71
2024/02/16 08:05:14;;;;;;;8.43;4.10;;;;;;;11.02;100.00;100846.28;5053534;28;20931;-71
2024/02/16 08:07:42;;;;;;;8.67;3.57;;;;;;;11.08;100.00;100858.66;5053768;28;20520;-71
2024/02/16 08:10:10;;;;;;;5.50;2.90;;;;;;;11.11;100.00;100856.16;5054096;28;20442;-70
2024/02/16 08:12:38;;;;;;;4.93;2.87;;;;;;;11.17;100.00;100859.56;5053258;28;20919;-70
2024/02/16 08:15:06;;;;;;;6.23;2.93;;;;;;;11.21;100.00;100860.59;5053716;28;20512;-70
2024/02/16 08:17:33;;;;;;;7.23;3.50;;;;;;;11.30;100.00;100863.41;5053462;28;20445;-70
2024/02/16 08:20:00;;;;;;;4.93;2.93;;;;;;;11.41;100.00;100864.03;5053590;28;20578;-70
2024/02/16 08:22:28;;;;;;;6.43;2.97;;;;;;;11.46;100.00;100870.16;5053340;28;20466;-72
2024/02/16 08:24:55;;;;;;;6.17;3.00;;;;;;;11.45;100.00;100865.03;5053428;28;20501;-71
2024/02/16 08:27:21;;;;;;;5.30;2.87;;;;;;;11.46;100.00;100872.06;5053838;28;20937;-71
2024/02/16 08:29:48;;;;;;;6.37;2.40;;;;;;;11.51;100.00;100866.53;5053487;28;20442;-70
2024/02/16 08:32:16;;;;;;;4.60;2.60;;;;;;;11.49;100.00;100857.91;5053425;28;20461;-71
2024/02/16 08:34:43;;;;;;;6.03;2.20;;;;;;;11.53;100.00;100856.22;5053368;28;20434;-71
2024/02/16 08:37:10;;;;;;;4.70;2.37;;;;;;;11.54;100.00;100849.66;5053089;28;20442;-70
2024/02/16 08:39:39;;;;;;;5.73;2.37;;;;;;;11.55;100.00;100848.56;5052976;28;20482;-70
2024/02/16 08:42:08;;;;;;;6.30;2.50;;;;;;;11.60;100.00;100856.63;5055575;28;20454;-71
2024/02/16 08:44:34;;;;;;;4.00;2.47;;;;;;;11.66;100.00;100844.56;5057358;28;20446;-71
2024/02/16 08:47:01;;;;;;;8.70;3.00;;;;;;;11.70;100.00;100842.06;5057421;28;20588;-70
2024/02/16 08:49:27;;;;;;;7.80;2.73;;;;;;;11.75;100.00;100837.31;5057461;28;20478;-74
2024/02/16 08:51:54;;;;;;;5.20;2.40;;;;;;;11.81;100.00;100840.72;5057207;28;20466;-71
2024/02/16 08:54:21;;;;;;;4.23;2.03;;;;;;;11.89;99.71;100840.03;5057141;28;21004;-71
2024/02/16 08:56:49;;;;;;;3.20;1.63;;;;;;;11.94;99.16;100845.38;5057173;28;20485;-71
2024/02/16 08:59:15;;;;;;;3.73;1.73;;;;;;;11.95;99.36;100841.53;5056754;28;20492;-71
2024/02/16 09:01:44;;;;;;;8.10;2.70;;;;;;;12.02;98.59;100835.72;5057005;28;20442;-71
2024/02/16 09:04:11;;;;;;;4.23;2.40;;;;;;;12.12;97.84;100846.34;5057446;28;20537;-71
2024/02/16 09:06:38;;;;;;;3.10;1.80;;;;;;;12.22;98.07;100840.72;5056906;28;20525;-72
2024/02/16 09:09:06;;;;;;;4.80;2.30;;;;;;;12.35;96.80;100841.75;5056995;28;20473;-71
2024/02/16 09:11:33;;;;;;;4.03;1.90;;;;;;;12.51;95.60;100848.44;5056959;28;20486;-71
2024/02/16 09:14:01;;;;;;;3.80;2.00;;;;;;;12.61;94.76;100844.69;5056877;28;20476;-71
2024/02/16 09:16:28;;;;;;;5.33;2.37;;;;;;;12.72;94.38;100840.63;5056536;28;20525;-71
2024/02/16 09:18:54;;;;;;;4.83;2.93;;;;;;;12.85;93.26;100838.97;5056659;28;20572;-71
2024/02/16 09:21:23;;;;;;;4.63;1.53;;;;;;;12.97;91.95;100844.66;5057015;28;20555;-71
2024/02/16 09:23:50;;;;;;;4.47;1.83;;;;;;;13.03;91.52;100835.22;5056851;28;20519;-71
2024/02/16 09:26:17;;;;;;;3.23;1.63;;;;;;;13.14;90.79;100843.91;5056618;28;20473;-71
2024/02/16 09:28:43;;;;;;;5.47;1.80;;;;;;;13.19;90.71;100832.09;5056551;28;20811;-71
2024/02/16 09:31:15;;;;;;;4.60;1.90;;;;;;;13.21;90.80;100832.59;5056889;28;20433;-71
2024/02/16 09:33:41;;;;;;;2.80;1.50;;;;;;;13.27;91.03;100834.09;5056016;28;20541;-71
2024/02/16 09:36:09;;;;;;;7.60;2.20;;;;;;;13.33;89.89;100825.50;5056666;28;20529;-71
2024/02/16 09:38:35;;;;;;;2.87;1.07;;;;;;;13.41;89.97;100826.63;5056873;28;20528;-71
2024/02/16 09:41:03;;;;;;;3.70;1.83;;;;;;;13.40;89.42;100835.91;5056329;28;20446;-71
2024/02/16 09:43:31;;;;;;;4.63;2.10;;;;;;;13.48;88.62;100829.72;5056172;28;20887;-71
2024/02/16 09:45:59;;;;;;;3.70;1.43;;;;;;;13.57;87.66;100835.19;5055865;28;20473;-71
2024/02/16 09:48:28;;;;;;;4.00;1.73;;;;;;;13.59;87.54;100841.09;5056148;28;20465;-71
2024/02/16 09:50:56;;;;;;;4.00;1.80;;;;;;;13.62;88.15;100843.22;5055793;28;20970;-71
2024/02/16 09:53:26;;;;;;;4.90;1.70;;;;;;;13.72;86.00;100845.63;5055581;28;20467;-71
2024/02/16 09:55:54;;;;;;;4.83;1.90;;;;;;;13.67;87.79;100840.34;5056954;28;20419;-71
2024/02/16 09:58:21;;;;;;;3.33;1.47;;;;;;;13.68;87.44;100839.25;5056153;28;20524;-71
2024/02/16 10:00:52;;;;;;;4.00;1.80;;;;;;;13.65;87.02;100834.41;5056701;28;20846;-71
2024/02/16 10:03:23;;;;;;;3.13;1.53;;;;;;;13.62;87.36;100835.03;5056457;28;20458;-71
2024/02/16 10:05:53;;;;;;;3.30;1.43;;;;;;;13.63;86.61;100842.09;5055991;28;20473;-71
2024/02/16 10:08:20;;;;;;;4.20;1.63;;;;;;;13.71;86.56;100840.53;5055769;28;20434;-71
2024/02/16 10:10:46;;;;;;;3.80;1.30;;;;;;;13.76;85.33;100843.88;5055762;28;20988;-71
2024/02/16 10:13:13;;;;;;;3.83;1.40;;;;;;;13.81;84.99;100853.84;5055251;28;20505;-71
2024/02/16 10:15:40;;;;;;;3.83;1.90;;;;;;;13.78;84.98;100844.41;5055617;28;20942;-71
2024/02/16 10:18:07;;;;;;;3.90;2.00;;;;;;;13.72;85.41;100842.13;5055552;28;20537;-71
2024/02/16 10:20:35;;;;;;;3.43;1.67;;;;;;;13.61;86.20;100841.63;5055353;28;21012;-71
2024/02/16 10:23:07;;;;;;;4.80;1.77;;;;;;;13.53;87.48;100843.19;5055098;28;20966;-71
2024/02/16 10:25:35;;;;;;;3.80;1.60;;;;;;;13.62;85.75;100840.50;5055706;28;20858;-71
2024/02/16 10:28:06;;;;;;;4.23;1.83;;;;;;;13.60;87.31;100846.25;5055701;28;20446;-71
2024/02/16 10:30:37;;;;;;;4.67;2.00;;;;;;;13.63;86.75;100831.19;5055761;28;20427;-71
2024/02/16 10:33:04;;;;;;;4.43;1.80;;;;;;;13.68;85.54;100839.25;5055412;28;20466;-71
2024/02/16 10:35:33;;;;;;;4.33;1.97;;;;;;;13.72;84.65;100840.19;5055097;28;20849;-71
2024/02/16 10:38:04;;;;;;;4.93;1.97;;;;;;;13.65;87.06;100839.88;5055307;28;20446;-76
2024/02/16 10:40:34;;;;;;;3.30;1.53;;;;;;;13.61;86.93;100844.34;5055160;28;20473;-72
2024/02/16 10:43:05;;;;;;;4.30;2.13;;;;;;;13.50;87.82;100840.28;5054820;28;20957;-72
2024/02/16 10:45:34;;;;;;;2.70;1.37;;;;;;;13.50;87.24;100838.38;5055099;28;20423;-72
2024/02/16 10:48:01;;;;;;;4.20;1.57;;;;;;;13.48;87.91;100842.53;5055002;28;20441;-72
2024/02/16 10:50:28;;;;;;;3.27;1.73;;;;;;;13.56;86.90;100830.88;5055008;28;20438;-72
2024/02/16 10:52:56;;;;;;;3.13;1.40;;;;;;;13.59;86.98;100832.94;5055183;28;20468;-71
2024/02/16 10:55:24;;;;;;;6.50;2.07;;;;;;;13.52;87.34;100819.00;5054588;28;20930;-71
2024/02/16 10:57:55;;;;;;;3.17;1.57;;;;;;;13.53;86.65;100817.88;5055046;28;20438;-71
2024/02/16 11:00:22;;;;;;;3.63;1.90;;;;;;;13.63;86.34;100814.88;5054947;28;20473;-73
2024/02/16 11:02:55;;;;;;;3.63;1.40;;;;;;;13.76;85.83;100822.09;5054632;28;20458;-71
2024/02/16 11:05:33;;;;;;;6.57;2.23;;;;;;;13.98;85.54;100814.94;5054800;28;20450;-72
2024/02/16 11:08:03;;;;;;;3.07;1.23;;;;;;;14.06;85.49;100819.63;5054693;28;20776;-72
2024/02/16 11:10:30;;;;;;;4.80;1.63;;;;;;;14.14;85.12;100821.56;5054743;28;20431;-71
2024/02/16 11:13:04;;;;;;;3.90;1.57;;;;;;;14.24;83.78;100834.06;5054230;28;20825;-72
2024/02/16 11:15:32;;;;;;;3.47;1.77;;;;;;;14.36;81.92;100831.50;5055156;28;20415;-71
2024/02/16 11:18:01;;;;;;;4.17;1.70;;;;;;;14.49;80.76;100816.16;5054886;28;20438;-71
2024/02/16 11:20:27;;;;;;;2.70;1.40;;;;;;;14.44;82.22;100813.56;5054470;28;20510;-72